Time;durP1;ratioP1;P1;durP2;ratioP2;P2;SDS_P1;SDS_P2;PMS_P1;PMS_P2;Temp;Humidity;BMP_temperature;BMP_pressure;BME280_temperature;BME280_humidity;BME280_pressure;Samples;Min_cycle;Max_cycle;Signal;HPM_P1;HPM_P2
2021/11/19 00:00:57;;;;;;;19.25;9.82;;;;;;;8.66;76.71;99269.72;4988752;28;20093;-54
2021/11/19 00:03:23;;;;;;;19.70;9.70;;;;;;;8.60;78.50;99261.13;4987526;28;20030;-54
2021/11/19 00:05:50;;;;;;;20.08;9.57;;;;;;;8.41;78.01;99263.06;4988307;28;20551;-55
2021/11/19 00:08:25;;;;;;;14.35;7.80;;;;;;;8.91;79.52;99256.38;4990072;28;20029;-54
2021/11/19 00:10:54;;;;;;;17.08;9.48;;;;;;;8.52;80.71;99261.22;4986628;28;20042;-54
2021/11/19 00:13:20;;;;;;;16.85;8.13;;;;;;;8.70;79.55;99254.09;4987338;28;20116;-54
2021/11/19 00:15:45;;;;;;;19.05;8.93;;;;;;;8.27;79.21;99258.03;4990422;28;20030;-54
2021/11/19 00:18:10;;;;;;;22.83;8.18;;;;;;;8.41;78.38;99255.28;4989536;28;20078;-54
2021/11/19 00:20:36;;;;;;;23.15;9.40;;;;;;;8.34;77.76;99256.22;4987883;28;20034;-55
2021/11/19 00:23:04;;;;;;;20.08;8.38;;;;;;;8.48;79.69;99241.34;4988475;28;20030;-55
2021/11/19 00:25:30;;;;;;;18.50;9.65;;;;;;;7.91;78.83;99240.22;4987121;28;20045;-54
2021/11/19 00:27:56;;;;;;;17.83;8.43;;;;;;;8.38;80.29;99239.69;4988769;28;20101;-55
2021/11/19 00:30:23;;;;;;;22.17;9.65;;;;;;;8.39;77.86;99246.63;4987174;28;20022;-54
2021/11/19 00:32:49;;;;;;;17.52;8.23;;;;;;;8.23;80.58;99248.53;4990440;28;20420;-55
2021/11/19 00:35:16;;;;;;;22.73;9.68;;;;;;;8.01;78.33;99258.31;4987796;28;20037;-54
2021/11/19 00:37:43;;;;;;;19.40;9.00;;;;;;;8.44;81.13;99255.28;4988335;28;20753;-54
2021/11/19 00:40:14;;;;;;;15.63;7.30;;;;;;;8.50;79.66;99255.19;4986598;28;20076;-55
2021/11/19 00:42:40;;;;;;;17.35;8.88;;;;;;;8.33;77.62;99247.56;4988089;28;20123;-55
2021/11/19 00:45:06;;;;;;;16.48;8.10;;;;;;;8.32;78.20;99260.59;4985761;28;20278;-54
2021/11/19 00:47:32;;;;;;;16.70;8.50;;;;;;;8.33;80.02;99267.53;4986829;28;20025;-54
2021/11/19 00:49:59;;;;;;;11.63;6.30;;;;;;;8.98;83.93;99281.44;4989395;28;20037;-55
2021/11/19 00:52:26;;;;;;;14.95;7.22;;;;;;;8.93;77.91;99280.63;4986725;28;20524;-55
2021/11/19 00:54:52;;;;;;;17.17;8.00;;;;;;;8.70;77.92;99278.34;4988772;28;20668;-54
2021/11/19 00:57:19;;;;;;;17.55;8.32;;;;;;;8.86;80.34;99276.41;4989143;28;20560;-55
2021/11/19 00:59:45;;;;;;;20.23;8.77;;;;;;;8.43;80.79;99284.75;4986241;28;20025;-55
2021/11/19 01:02:21;;;;;;;16.80;8.35;;;;;;;8.36;79.37;99280.47;4985569;28;20100;-55
2021/11/19 01:04:46;;;;;;;18.77;8.27;;;;;;;8.29;77.74;99283.16;4987925;28;20030;-55
2021/11/19 01:07:14;;;;;;;15.85;7.85;;;;;;;8.45;79.84;99272.59;4984997;28;20060;-55
2021/11/19 01:09:49;;;;;;;14.65;8.02;;;;;;;8.04;79.75;99266.09;4988776;28;20038;-54
2021/11/19 01:12:17;;;;;;;17.15;8.30;;;;;;;8.70;77.87;99267.09;4986047;28;20053;-55
2021/11/19 01:14:44;;;;;;;18.42;8.65;;;;;;;8.23;80.38;99272.78;4988070;28;20667;-53
2021/11/19 01:17:15;;;;;;;15.40;7.68;;;;;;;8.54;80.64;99267.28;4989819;28;20552;-54
2021/11/19 01:19:49;;;;;;;19.50;8.35;;;;;;;8.60;79.31;99264.63;4989416;28;20050;-54
2021/11/19 01:22:24;;;;;;;19.88;8.98;;;;;;;8.46;79.83;99269.97;4986708;28;20042;-54
2021/11/19 01:24:50;;;;;;;18.60;8.30;;;;;;;8.11;82.36;99273.81;4991230;28;20018;-53
2021/11/19 01:27:16;;;;;;;21.70;8.38;;;;;;;8.08;79.75;99286.81;4987169;28;20280;-53
2021/11/19 01:29:42;;;;;;;19.48;8.68;;;;;;;8.03;79.51;99282.53;5003590;28;20019;-53
2021/11/19 01:32:12;;;;;;;19.52;8.00;;;;;;;8.23;79.08;99288.38;4993951;28;20049;-53
2021/11/19 01:34:38;;;;;;;20.60;8.52;;;;;;;8.23;79.84;99296.19;4987354;28;20064;-53
2021/11/19 01:37:05;;;;;;;16.42;7.65;;;;;;;8.69;75.71;99297.44;4988282;28;20046;-54
2021/11/19 01:39:32;;;;;;;16.88;7.82;;;;;;;8.40;78.21;99305.53;4988129;28;20050;-54
2021/11/19 01:42:09;;;;;;;20.45;8.65;;;;;;;8.32;78.16;99309.97;4986983;28;20046;-53
2021/11/19 01:44:54;;;;;;;12.38;6.75;;;;;;;8.75;79.58;99304.28;4987962;28;20531;-53
2021/11/19 01:47:20;;;;;;;17.35;8.40;;;;;;;8.59;76.18;99301.91;4986178;28;20198;-53
2021/11/19 01:49:46;;;;;;;19.60;7.78;;;;;;;8.52;80.32;99302.84;4986927;28;20034;-54
2021/11/19 01:52:29;;;;;;;15.77;7.10;;;;;;;9.19;78.75;99308.03;4984694;28;20088;-53
2021/11/19 01:54:59;;;;;;;17.23;8.38;;;;;;;8.41;80.20;99297.72;4988345;28;20167;-53
2021/11/19 01:57:33;;;;;;;16.15;7.63;;;;;;;8.68;81.80;99293.13;4987242;28;20038;-53
2021/11/19 02:00:04;;;;;;;15.85;7.93;;;;;;;8.53;78.71;99296.78;4988582;28;20812;-55
2021/11/19 02:02:42;;;;;;;15.88;7.80;;;;;;;8.28;79.59;99293.56;4986035;28;20643;-54
2021/11/19 02:05:11;;;;;;;16.75;7.93;;;;;;;8.30;78.17;99297.84;4987872;28;20026;-54
2021/11/19 02:07:45;;;;;;;18.55;7.88;;;;;;;8.57;79.30;99293.25;4987151;28;20034;-54
2021/11/19 02:10:13;;;;;;;15.77;6.07;;;;;;;8.80;83.13;99284.28;4986661;28;20026;-53
2021/11/19 02:13:10;;;;;;;21.05;8.38;;;;;;;8.56;82.19;99285.47;4988096;28;20026;-57
2021/11/19 02:15:51;;;;;;;22.52;8.05;;;;;;;8.53;79.80;99277.69;4985939;28;20034;-54
2021/11/19 02:18:31;;;;;;;22.60;8.18;;;;;;;7.99;79.47;99273.91;4989890;28;20109;-53
2021/11/19 02:21:03;;;;;;;16.65;7.93;;;;;;;8.36;80.06;99277.88;4987361;28;20780;-53
2021/11/19 02:23:52;;;;;;;22.45;8.18;;;;;;;8.33;78.64;99267.53;4987273;28;20108;-54
2021/11/19 02:26:22;;;;;;;21.65;7.90;;;;;;;8.53;76.66;99275.09;4986678;28;20805;-53
2021/11/19 02:28:50;;;;;;;19.52;8.35;;;;;;;8.25;79.09;99270.19;4988438;28;20116;-53
2021/11/19 02:31:20;;;;;;;17.85;8.10;;;;;;;8.08;78.73;99279.03;4985184;28;20041;-53
2021/11/19 02:33:48;;;;;;;18.80;8.15;;;;;;;8.00;79.33;99275.66;4985315;28;20034;-55
2021/11/19 02:36:17;;;;;;;17.70;8.73;;;;;;;8.13;80.02;99275.53;4986373;28;20440;-53
2021/11/19 02:38:57;;;;;;;14.57;8.27;;;;;;;8.06;80.46;99266.94;4987256;28;20040;-54
2021/11/19 02:41:24;;;;;;;18.20;8.57;;;;;;;7.98;79.85;99272.22;4983515;28;20030;-52
2021/11/19 02:44:00;;;;;;;19.58;7.97;;;;;;;7.89;80.61;99273.16;4994874;28;20030;-53
2021/11/19 02:46:36;;;;;;;15.00;6.95;;;;;;;8.55;81.02;99263.81;4988719;28;20029;-55
2021/11/19 02:49:03;;;;;;;13.93;6.78;;;;;;;8.46;81.31;99266.53;4993015;28;20475;-53
2021/11/19 02:51:29;;;;;;;16.73;8.55;;;;;;;8.35;82.35;99271.81;4987336;28;20034;-53
2021/11/19 02:53:56;;;;;;;19.23;8.80;;;;;;;8.17;80.69;99262.47;4996365;28;20022;-53
2021/11/19 02:56:23;;;;;;;18.85;7.82;;;;;;;8.47;85.41;99265.63;4990007;28;20411;-55
2021/11/19 02:58:52;;;;;;;11.77;6.80;;;;;;;8.35;83.63;99261.41;4990141;28;20029;-52
2021/11/19 03:01:27;;;;;;;23.23;9.32;;;;;;;8.09;82.73;99253.91;4989336;28;20038;-52
2021/11/19 03:04:00;;;;;;;22.05;8.20;;;;;;;8.18;85.11;99263.31;4991293;28;20038;-53
2021/11/19 03:06:26;;;;;;;19.08;8.15;;;;;;;8.20;85.83;99259.00;4988956;28;20049;-53
2021/11/19 03:08:52;;;;;;;19.48;7.53;;;;;;;8.47;85.34;99260.41;4989976;28;20038;-54
2021/11/19 03:11:17;;;;;;;18.65;8.35;;;;;;;8.19;86.65;99255.53;4988578;28;20034;-53
2021/11/19 03:13:43;;;;;;;15.85;7.40;;;;;;;8.57;87.69;99249.03;4990431;28;20080;-54
2021/11/19 03:16:09;;;;;;;22.13;8.10;;;;;;;8.37;86.32;99259.66;4991435;28;20034;-53
2021/11/19 03:18:35;;;;;;;23.10;9.07;;;;;;;8.07;83.25;99256.53;4989977;28;20025;-54
2021/11/19 03:21:04;;;;;;;15.23;6.82;;;;;;;8.52;83.31;99253.44;4988824;28;20149;-54
2021/11/19 03:23:31;;;;;;;20.10;8.98;;;;;;;8.17;83.23;99252.06;4990361;28;20030;-54
2021/11/19 03:25:57;;;;;;;18.33;8.40;;;;;;;8.20;83.69;99252.06;4991276;28;20040;-54
2021/11/19 03:28:25;;;;;;;21.25;9.15;;;;;;;8.23;83.91;99251.16;4989829;28;20026;-53
2021/11/19 03:30:54;;;;;;;20.00;7.43;;;;;;;8.94;84.08;99261.53;4988746;28;20042;-54
2021/11/19 03:33:23;;;;;;;18.42;7.57;;;;;;;8.57;87.77;99262.03;4989979;28;20040;-54
2021/11/19 03:35:50;;;;;;;20.70;7.10;;;;;;;8.66;86.15;99246.31;4988585;28;20042;-55
2021/11/19 03:38:16;;;;;;;19.50;8.30;;;;;;;8.38;86.46;99244.91;4991100;28;20099;-54
2021/11/19 03:40:44;;;;;;;18.63;7.82;;;;;;;8.53;84.96;99239.56;4987243;28;20038;-53
2021/11/19 03:43:16;;;;;;;21.42;8.00;;;;;;;8.18;84.34;99238.22;4988202;28;20026;-53
2021/11/19 03:45:46;;;;;;;12.85;6.95;;;;;;;8.60;82.54;99237.72;4989480;28;20882;-54
2021/11/19 03:48:13;;;;;;;17.20;7.93;;;;;;;8.13;86.45;99234.81;4990394;28;20030;-53
2021/11/19 03:50:52;;;;;;;14.32;7.10;;;;;;;8.58;85.48;99242.09;4989455;28;20050;-54
2021/11/19 03:53:22;;;;;;;21.38;8.65;;;;;;;8.43;82.30;99243.16;4988165;28;20080;-54
2021/11/19 03:55:49;;;;;;;16.77;7.72;;;;;;;8.40;84.63;99248.34;4989460;28;20050;-55
2021/11/19 03:58:21;;;;;;;18.65;7.25;;;;;;;8.60;83.91;99249.00;4989024;28;20841;-54
2021/11/19 04:00:51;;;;;;;17.52;7.45;;;;;;;8.52;82.28;99247.38;4987858;28;20053;-54
2021/11/19 04:03:17;;;;;;;14.35;7.57;;;;;;;8.35;85.35;99251.00;4988946;28;20103;-54
2021/11/19 04:05:44;;;;;;;17.77;7.75;;;;;;;8.27;83.22;99245.91;4988687;28;20685;-54
2021/11/19 04:08:10;;;;;;;13.73;7.13;;;;;;;8.65;83.81;99244.59;4985111;28;20022;-54
2021/11/19 04:10:36;;;;;;;20.70;7.53;;;;;;;8.35;81.91;99251.00;4988095;28;20034;-54
2021/11/19 04:13:02;;;;;;;15.23;7.50;;;;;;;8.22;82.22;99254.63;4988117;28;20053;-54
2021/11/19 04:15:32;;;;;;;19.10;7.47;;;;;;;8.78;82.92;99245.28;4987882;28;20042;-53
2021/11/19 04:17:57;;;;;;;18.98;7.63;;;;;;;8.45;83.20;99242.25;4989194;28;20026;-54
2021/11/19 04:20:24;;;;;;;22.35;7.68;;;;;;;8.55;83.78;99237.78;4988296;28;20880;-53
2021/11/19 04:22:49;;;;;;;16.92;7.22;;;;;;;8.72;85.14;99244.53;4987473;28;20080;-54
2021/11/19 04:25:17;;;;;;;18.17;7.53;;;;;;;8.55;82.76;99245.59;4988293;28;20034;-53
2021/11/19 04:27:43;;;;;;;15.02;7.85;;;;;;;8.47;83.30;99255.22;4991040;28;20106;-54
2021/11/19 04:30:13;;;;;;;18.55;8.30;;;;;;;8.77;80.38;99260.94;4987565;28;20109;-54
2021/11/19 04:32:38;;;;;;;17.50;6.82;;;;;;;8.65;80.21;99249.78;4990432;28;20025;-55
2021/11/19 04:35:06;;;;;;;21.80;7.97;;;;;;;8.57;80.25;99262.03;4989004;28;20033;-54
2021/11/19 04:37:31;;;;;;;16.67;7.35;;;;;;;8.78;85.53;99255.69;4989091;28;20129;-55
2021/11/19 04:39:57;;;;;;;21.67;7.50;;;;;;;8.87;84.27;99262.50;4988322;28;20129;-55
2021/11/19 04:42:22;;;;;;;15.50;7.35;;;;;;;8.60;82.66;99263.72;4987053;28;20042;-54
2021/11/19 04:44:49;;;;;;;15.25;6.78;;;;;;;8.64;83.11;99266.28;4988581;28;20744;-54
2021/11/19 04:47:15;;;;;;;17.83;7.78;;;;;;;8.75;83.54;99265.25;4987481;28;20049;-54
2021/11/19 04:49:41;;;;;;;21.45;7.72;;;;;;;8.87;83.95;99260.75;4989056;28;20031;-53
2021/11/19 04:52:09;;;;;;;16.75;7.45;;;;;;;8.90;80.19;99264.22;4989652;28;20053;-54
2021/11/19 04:54:35;;;;;;;14.00;7.63;;;;;;;8.76;81.91;99267.00;4987640;28;20037;-54
2021/11/19 04:57:01;;;;;;;18.38;7.63;;;;;;;9.02;84.72;99264.03;4991232;28;20782;-53
2021/11/19 04:59:27;;;;;;;20.60;8.73;;;;;;;8.56;82.07;99265.50;4986997;28;20029;-54
2021/11/19 05:02:01;;;;;;;18.48;8.20;;;;;;;8.30;85.85;99264.06;4986981;28;20045;-54
2021/11/19 05:04:27;;;;;;;20.45;7.95;;;;;;;8.72;85.28;99263.59;4987082;28;20026;-54
2021/11/19 05:06:53;;;;;;;15.60;7.70;;;;;;;8.70;83.52;99256.69;4984620;28;20147;-54
2021/11/19 05:09:18;;;;;;;15.93;7.85;;;;;;;8.68;83.96;99259.31;4987252;28;20046;-54
2021/11/19 05:11:58;;;;;;;23.33;9.00;;;;;;;8.08;83.83;99252.19;4987788;28;20619;-54
2021/11/19 05:14:24;;;;;;;23.45;9.68;;;;;;;8.32;87.61;99255.38;4988338;28;20025;-54
2021/11/19 05:16:49;;;;;;;19.20;9.15;;;;;;;8.16;88.10;99258.16;4987092;28;20041;-54
2021/11/19 05:19:15;;;;;;;14.98;7.75;;;;;;;8.55;87.70;99260.34;4990015;28;20527;-53
2021/11/19 05:21:42;;;;;;;27.38;9.75;;;;;;;8.27;85.38;99264.09;4987009;28;20073;-53
2021/11/19 05:24:09;;;;;;;24.60;9.77;;;;;;;8.48;85.85;99269.97;4985677;28;20057;-53
2021/11/19 05:26:36;;;;;;;15.52;8.25;;;;;;;8.99;85.84;99269.31;4987125;28;20049;-54
2021/11/19 05:29:03;;;;;;;22.73;10.15;;;;;;;8.39;86.32;99272.63;4986958;28;20026;-55
2021/11/19 05:31:28;;;;;;;24.13;9.65;;;;;;;8.55;84.60;99269.00;4986097;28;20042;-55
2021/11/19 05:33:53;;;;;;;24.05;10.07;;;;;;;8.72;84.90;99276.59;4988229;28;20993;-54
2021/11/19 05:36:19;;;;;;;22.65;11.18;;;;;;;8.33;85.08;99280.53;4987702;28;20034;-53
2021/11/19 05:38:45;;;;;;;23.88;10.02;;;;;;;8.71;83.93;99285.25;4986940;28;20032;-54
2021/11/19 05:41:14;;;;;;;26.23;10.55;;;;;;;8.66;85.83;99274.94;5000842;28;20115;-55
2021/11/19 05:43:43;;;;;;;23.85;10.70;;;;;;;8.50;86.18;99286.41;4985364;28;20575;-54
2021/11/19 05:46:09;;;;;;;24.02;9.95;;;;;;;8.83;83.71;99295.50;4986497;28;20801;-54
2021/11/19 05:48:34;;;;;;;26.42;10.73;;;;;;;8.22;86.34;99285.84;4988176;28;20022;-53
2021/11/19 05:51:00;;;;;;;23.23;10.32;;;;;;;8.59;87.35;99294.09;4985257;28;20085;-54
2021/11/19 05:53:26;;;;;;;20.10;11.00;;;;;;;8.14;88.01;99298.88;4986929;28;20077;-53
2021/11/19 05:55:51;;;;;;;22.30;10.23;;;;;;;8.30;90.74;99295.25;4987290;28;20547;-53
2021/11/19 05:58:18;;;;;;;21.10;10.18;;;;;;;8.33;90.95;99294.38;4986638;28;20121;-54
2021/11/19 06:00:55;;;;;;;23.20;9.45;;;;;;;8.74;91.29;99299.97;4987539;28;20115;-54
2021/11/19 06:03:21;;;;;;;22.60;11.13;;;;;;;8.52;90.35;99295.03;4986005;28;20022;-53
2021/11/19 06:05:46;;;;;;;30.65;12.85;;;;;;;8.44;88.06;99294.28;4992017;28;20072;-53
2021/11/19 06:08:11;;;;;;;25.50;11.82;;;;;;;8.24;88.80;99290.13;4989498;28;20038;-54
2021/11/19 06:10:49;;;;;;;26.70;12.20;;;;;;;8.72;88.13;99293.94;4989577;28;20057;-53
2021/11/19 06:13:16;;;;;;;25.05;10.75;;;;;;;8.88;88.96;99295.47;4990037;28;20030;-53
2021/11/19 06:15:46;;;;;;;22.50;10.50;;;;;;;8.71;88.55;99290.47;5003335;28;20061;-54
2021/11/19 06:18:24;;;;;;;23.10;10.70;;;;;;;8.45;89.85;99298.59;4990306;28;20029;-53
2021/11/19 06:20:53;;;;;;;22.35;8.68;;;;;;;8.87;88.94;99293.72;4990921;28;20034;-53
2021/11/19 06:23:24;;;;;;;29.52;12.15;;;;;;;8.59;87.48;99304.50;4991854;28;20034;-56
2021/11/19 06:25:50;;;;;;;24.63;10.02;;;;;;;8.66;91.57;99302.69;5008843;28;21065;-57
2021/11/19 06:28:21;;;;;;;32.58;12.77;;;;;;;8.22;89.11;99310.09;4990012;28;20404;-54
2021/11/19 06:30:46;;;;;;;25.02;12.00;;;;;;;8.33;90.90;99309.13;4991614;28;20065;-53
2021/11/19 06:33:12;;;;;;;20.80;10.50;;;;;;;8.57;89.46;99308.00;4994916;28;20414;-54
2021/11/19 06:35:38;;;;;;;25.67;11.43;;;;;;;8.59;90.38;99307.09;4993035;28;20400;-54
2021/11/19 06:38:04;;;;;;;19.23;10.30;;;;;;;8.64;93.61;99304.44;4995031;28;20529;-54
2021/11/19 06:40:32;;;;;;;26.88;12.57;;;;;;;8.25;93.06;99307.47;4993334;28;20659;-55
2021/11/19 06:42:58;;;;;;;26.73;12.32;;;;;;;8.28;93.53;99312.59;4996272;28;20109;-54
2021/11/19 06:45:25;;;;;;;32.97;12.82;;;;;;;9.78;94.49;99308.84;4993490;28;20499;-55
2021/11/19 06:47:51;;;;;;;15.60;7.45;;;;;;;9.56;96.04;99312.72;4994987;28;20022;-54
2021/11/19 06:50:21;;;;;;;14.02;5.90;;;;;;;10.31;98.13;99314.03;4994629;28;20109;-54
2021/11/19 06:52:46;;;;;;;17.65;8.75;;;;;;;9.75;84.15;99308.91;4993817;28;20026;-55
2021/11/19 06:55:13;;;;;;;20.08;6.80;;;;;;;10.59;100.00;99314.34;4994874;28;20027;-55
2021/11/19 06:57:40;;;;;;;29.35;10.38;;;;;;;10.65;100.00;99315.13;4995588;28;20037;-55
2021/11/19 07:00:09;;;;;;;25.65;9.70;;;;;;;10.59;99.68;99319.56;4996252;28;20025;-55
2021/11/19 07:02:36;;;;;;;20.08;8.30;;;;;;;11.45;100.00;99315.97;4994308;28;20603;-56
2021/11/19 07:05:02;;;;;;;22.25;7.88;;;;;;;12.70;99.47;99317.13;4995151;28;20129;-55
2021/11/19 07:07:27;;;;;;;21.98;9.57;;;;;;;10.63;86.09;99322.13;4996393;28;20456;-54
2021/11/19 07:09:53;;;;;;;17.40;8.57;;;;;;;10.35;92.52;99325.28;4996297;28;20058;-57
2021/11/19 07:12:18;;;;;;;16.75;7.90;;;;;;;11.48;88.39;99323.75;4996290;28;20185;-56
2021/11/19 07:14:44;;;;;;;20.55;8.65;;;;;;;11.61;86.38;99322.56;4993977;28;20037;-55
2021/11/19 07:17:10;;;;;;;20.05;9.77;;;;;;;10.85;91.06;99331.22;4993009;28;20042;-55
2021/11/19 07:19:38;;;;;;;23.73;10.18;;;;;;;10.30;82.80;99324.47;4994561;28;20085;-54
2021/11/19 07:22:04;;;;;;;16.17;7.15;;;;;;;11.12;90.16;99323.69;4993242;28;20278;-56
2021/11/19 07:24:32;;;;;;;21.15;8.05;;;;;;;10.34;83.20;99331.38;4996421;28;20459;-56
2021/11/19 07:26:58;;;;;;;26.00;12.77;;;;;;;10.21;80.91;99344.59;4995122;28;20046;-55
2021/11/19 07:29:23;;;;;;;14.63;7.93;;;;;;;10.94;94.08;99348.47;4994776;28;20345;-55
2021/11/19 07:31:49;;;;;;;15.40;7.70;;;;;;;10.70;85.66;99347.22;4993319;28;20041;-56
2021/11/19 07:34:14;;;;;;;26.10;11.50;;;;;;;10.26;82.44;99338.47;4996432;28;20037;-55
2021/11/19 07:36:40;;;;;;;26.13;11.75;;;;;;;9.42;86.62;99350.22;4995529;28;20511;-55
2021/11/19 07:39:07;;;;;;;22.80;10.30;;;;;;;9.98;88.91;99341.53;4993559;28;20064;-55
2021/11/19 07:41:33;;;;;;;25.90;12.13;;;;;;;9.71;84.62;99338.50;4991458;28;20042;-56
2021/11/19 07:43:59;;;;;;;18.17;10.02;;;;;;;10.06;91.82;99344.88;4992093;28;20193;-55
2021/11/19 07:46:27;;;;;;;27.48;11.07;;;;;;;10.74;82.11;99343.66;4993436;28;20136;-55
2021/11/19 07:48:53;;;;;;;21.65;9.57;;;;;;;10.89;81.49;99347.69;4993604;28;20484;-55
2021/11/19 07:51:23;;;;;;;22.67;10.15;;;;;;;10.51;81.92;99337.13;4990673;28;20054;-55
2021/11/19 07:53:49;;;;;;;21.60;10.15;;;;;;;10.18;88.65;99339.44;4992676;28;20060;-55
2021/11/19 07:56:17;;;;;;;17.20;6.22;;;;;;;11.25;88.99;99332.09;4993487;28;20080;-56
2021/11/19 07:58:44;;;;;;;20.05;9.98;;;;;;;9.74;83.18;99343.69;4992359;28;20022;-55
2021/11/19 08:01:10;;;;;;;18.35;8.63;;;;;;;10.75;87.28;99345.34;4992613;28;20169;-55
2021/11/19 08:03:36;;;;;;;22.45;10.70;;;;;;;10.90;78.79;99336.34;4993154;28;20109;-55
2021/11/19 08:06:04;;;;;;;23.38;10.10;;;;;;;11.27;77.50;99336.41;4992380;28;20080;-56
2021/11/19 08:08:32;;;;;;;20.92;10.45;;;;;;;10.29;81.89;99340.97;4993355;28;20073;-55
2021/11/19 08:10:58;;;;;;;11.55;5.72;;;;;;;12.18;85.48;99338.63;4992205;28;20120;-58
2021/11/19 08:13:24;;;;;;;23.35;12.55;;;;;;;9.60;82.66;99340.44;4993157;28;20030;-55
2021/11/19 08:15:49;;;;;;;18.25;9.50;;;;;;;9.94;86.06;99339.88;4990288;28;20045;-56
2021/11/19 08:18:22;;;;;;;12.27;6.53;;;;;;;10.59;89.39;99340.44;4994792;28;20026;-55
2021/11/19 08:20:49;;;;;;;24.63;10.40;;;;;;;9.95;82.76;99341.59;4991435;28;20121;-55
2021/11/19 08:23:21;;;;;;;18.23;7.45;;;;;;;10.41;86.22;99343.41;4989305;28;20030;-56
2021/11/19 08:25:47;;;;;;;23.48;10.50;;;;;;;9.70;90.35;99339.38;4991766;28;20451;-56
2021/11/19 08:28:14;;;;;;;28.98;12.18;;;;;;;9.55;84.67;99342.22;4991872;28;20022;-55
2021/11/19 08:30:43;;;;;;;24.58;12.32;;;;;;;9.41;86.26;99351.13;4991502;28;20038;-55
2021/11/19 08:33:11;;;;;;;28.00;11.80;;;;;;;9.90;83.98;99338.19;4991643;28;20054;-56
2021/11/19 08:35:40;;;;;;;25.73;11.15;;;;;;;9.64;86.30;99337.72;4990303;28;20034;-56
2021/11/19 08:38:08;;;;;;;27.98;11.80;;;;;;;9.91;82.28;99332.13;4990600;28;20574;-56
2021/11/19 08:40:39;;;;;;;23.00;9.57;;;;;;;9.95;84.19;99336.38;4991866;28;20137;-56
2021/11/19 08:43:05;;;;;;;18.85;9.10;;;;;;;10.38;81.57;99341.72;4991183;28;20092;-55
2021/11/19 08:45:31;;;;;;;17.65;7.78;;;;;;;11.07;79.33;99341.22;4991758;28;20058;-56
2021/11/19 08:47:57;;;;;;;15.93;7.53;;;;;;;10.60;82.97;99342.19;4989403;28;20452;-55
2021/11/19 08:50:27;;;;;;;22.27;10.40;;;;;;;10.19;81.21;99348.97;4992409;28;20530;-56
2021/11/19 08:52:52;;;;;;;23.73;10.25;;;;;;;10.69;79.57;99345.47;4991654;28;20027;-55
2021/11/19 08:55:18;;;;;;;12.77;6.10;;;;;;;12.18;85.31;99338.63;4990746;28;20030;-55
2021/11/19 08:57:45;;;;;;;20.27;8.45;;;;;;;10.96;78.86;99344.91;4989982;28;20065;-56
2021/11/19 09:00:15;;;;;;;12.68;5.45;;;;;;;11.94;78.48;99340.97;4990312;28;20023;-55
2021/11/19 09:02:40;;;;;;;13.98;6.45;;;;;;;10.89;81.25;99351.16;4990369;28;20084;-56
2021/11/19 09:05:07;;;;;;;10.77;5.78;;;;;;;11.83;79.30;99349.03;4991258;28;20028;-55
2021/11/19 09:07:35;;;;;;;12.07;5.97;;;;;;;14.23;71.20;99347.31;4991579;28;20037;-57
2021/11/19 09:10:06;;;;;;;13.85;6.72;;;;;;;11.97;73.57;99346.13;4990429;28;20049;-55
2021/11/19 09:12:31;;;;;;;12.52;7.10;;;;;;;10.88;75.79;99357.28;4989714;28;20049;-56
2021/11/19 09:14:57;;;;;;;12.68;6.25;;;;;;;12.99;75.42;99353.84;4990939;28;20034;-56
2021/11/19 09:17:22;;;;;;;10.15;5.45;;;;;;;13.37;73.12;99350.09;4992540;28;20068;-55
2021/11/19 09:19:59;;;;;;;11.02;5.93;;;;;;;14.32;70.63;99345.25;4991186;28;20018;-56
2021/11/19 09:23:03;;;;;;;12.45;6.85;;;;;;;12.60;69.67;99346.22;4987894;28;20204;-57
2021/11/19 09:25:30;;;;;;;12.48;5.32;;;;;;;13.21;71.00;99344.41;4932558;29;20096;-55
2021/11/19 09:27:56;;;;;;;10.38;5.15;;;;;;;13.03;75.14;99344.97;4978079;28;20049;-57
2021/11/19 09:30:28;;;;;;;13.90;6.70;;;;;;;12.16;74.90;99351.72;4989492;28;20081;-56
2021/11/19 09:32:56;;;;;;;12.50;6.50;;;;;;;13.68;69.88;99350.00;4991646;28;20092;-57
2021/11/19 09:35:25;;;;;;;13.40;7.05;;;;;;;11.98;73.27;99357.44;4988526;28;20716;-55
2021/11/19 09:37:52;;;;;;;11.27;6.00;;;;;;;12.90;68.36;99355.84;4990534;28;20042;-56
2021/11/19 09:40:22;;;;;;;10.32;5.82;;;;;;;13.47;66.79;99364.66;4990024;28;20032;-55
2021/11/19 09:42:56;;;;;;;16.25;7.95;;;;;;;11.19;73.19;99367.06;4989456;28;20045;-58
2021/11/19 09:45:40;;;;;;;13.02;5.55;;;;;;;12.04;72.84;99367.72;4990630;28;20026;-55
2021/11/19 09:48:24;;;;;;;14.45;7.38;;;;;;;12.30;70.52;99360.09;4989552;28;20040;-56
2021/11/19 09:51:04;;;;;;;10.05;4.85;;;;;;;12.95;74.97;99360.06;4987399;28;20121;-55
2021/11/19 09:53:32;;;;;;;11.52;5.25;;;;;;;13.59;70.08;99355.53;4988589;28;20534;-56
2021/11/19 09:56:19;;;;;;;9.73;5.03;;;;;;;13.30;69.97;99357.28;4989524;28;20054;-56
2021/11/19 09:59:00;;;;;;;9.77;5.38;;;;;;;14.12;67.90;99359.09;4988469;28;20172;-55
2021/11/19 10:01:44;;;;;;;12.07;6.22;;;;;;;12.80;68.69;99349.13;4991048;28;20041;-55
2021/11/19 10:04:24;;;;;;;11.57;5.05;;;;;;;13.35;67.97;99351.06;4990958;28;20460;-55
2021/11/19 10:07:00;;;;;;;12.57;5.25;;;;;;;12.96;69.76;99348.69;4997815;28;20042;-55
2021/11/19 10:09:35;;;;;;;11.82;5.85;;;;;;;12.76;70.06;99344.88;4990497;28;20673;-55
2021/11/19 10:12:21;;;;;;;9.02;4.40;;;;;;;12.70;68.36;99337.19;4990143;28;20120;-54
2021/11/19 10:15:06;;;;;;;7.97;4.10;;;;;;;14.42;65.52;99341.41;4991181;28;20030;-56
2021/11/19 10:17:50;;;;;;;7.10;3.85;;;;;;;14.39;66.45;99339.75;4990257;28;20453;-55
2021/11/19 10:20:27;;;;;;;7.75;3.90;;;;;;;14.32;68.59;99335.63;4990489;28;20025;-55
2021/11/19 10:23:07;;;;;;;9.25;5.20;;;;;;;13.17;65.19;99332.31;4990141;28;20033;-55
2021/11/19 10:25:46;;;;;;;7.43;4.05;;;;;;;13.67;71.62;99342.16;4988656;28;20519;-55
2021/11/19 10:28:20;;;;;;;9.90;3.75;;;;;;;14.04;67.59;99335.69;4990611;28;20034;-55
2021/11/19 10:30:50;;;;;;;7.80;3.67;;;;;;;13.52;69.33;99333.03;4990113;28;20520;-55
2021/11/19 10:33:21;;;;;;;6.05;3.67;;;;;;;14.05;65.96;99327.78;4996947;28;20745;-56
2021/11/19 10:36:10;;;;;;;7.80;3.50;;;;;;;12.61;67.27;99326.97;4987667;28;20040;-56
2021/11/19 10:38:50;;;;;;;6.43;3.40;;;;;;;13.37;66.69;99323.03;4987209;28;20030;-55
2021/11/19 10:41:34;;;;;;;5.90;3.03;;;;;;;13.45;65.38;99315.78;4987044;28;20133;-55
2021/11/19 10:44:02;;;;;;;4.82;2.88;;;;;;;15.65;64.20;99309.66;4990194;28;20092;-56
2021/11/19 10:46:56;;;;;;;4.55;3.05;;;;;;;13.87;64.31;99307.44;4988146;28;20129;-55
2021/11/19 10:49:41;;;;;;;6.38;3.35;;;;;;;13.55;66.30;99301.47;4988688;28;20105;-55
2021/11/19 10:52:33;;;;;;;5.50;3.20;;;;;;;13.33;66.24;99305.72;4989532;28;20842;-54
2021/11/19 10:55:27;;;;;;;3.83;2.17;;;;;;;15.75;58.36;99303.97;4989934;28;20022;-55
2021/11/19 10:57:58;;;;;;;5.93;2.30;;;;;;;15.42;62.79;99300.91;4990518;28;20060;-55
2021/11/19 11:00:24;;;;;;;3.38;1.95;;;;;;;13.63;64.22;99294.22;4991064;28;20106;-56
2021/11/19 11:02:52;;;;;;;4.22;2.25;;;;;;;14.79;62.88;99287.56;4989100;28;20567;-55
2021/11/19 11:05:24;;;;;;;3.78;2.13;;;;;;;15.62;62.62;99279.03;4990926;28;20057;-57
2021/11/19 11:08:07;;;;;;;4.15;2.10;;;;;;;15.73;57.94;99281.22;4990036;28;20010;-56
2021/11/19 11:10:38;;;;;;;2.85;1.90;;;;;;;16.23;59.43;99274.75;4990398;28;20042;-56
2021/11/19 11:13:22;;;;;;;5.83;2.00;;;;;;;15.50;59.39;99277.78;4991607;28;20084;-55
2021/11/19 11:15:52;;;;;;;2.90;1.70;;;;;;;15.20;59.51;99278.09;4991636;28;20069;-55
2021/11/19 11:18:25;;;;;;;2.90;1.80;;;;;;;16.35;60.25;99280.34;4991211;28;20026;-56
2021/11/19 11:20:53;;;;;;;2.83;1.70;;;;;;;14.66;60.56;99281.94;4993136;28;20062;-55
2021/11/19 11:23:43;;;;;;;3.28;1.80;;;;;;;17.20;58.31;99273.00;4993338;28;20136;-56
2021/11/19 11:26:17;;;;;;;3.28;1.70;;;;;;;16.28;60.01;99271.00;4990562;28;20422;-56
2021/11/19 11:28:57;;;;;;;4.72;2.00;;;;;;;15.96;58.56;99267.16;4993163;28;20022;-55
2021/11/19 11:31:54;;;;;;;4.88;2.10;;;;;;;14.48;61.33;99272.91;4989477;28;20115;-55
2021/11/19 11:35:01;;;;;;;2.72;1.70;;;;;;;17.19;57.17;99266.88;4991264;28;20033;-56
2021/11/19 11:38:04;;;;;;;3.72;2.10;;;;;;;15.39;61.57;99272.13;4984732;28;20045;-55
2021/11/19 11:40:48;;;;;;;3.35;1.75;;;;;;;16.41;57.61;99270.47;4962095;28;20408;-55
2021/11/19 11:43:26;;;;;;;3.70;1.88;;;;;;;17.21;55.97;99269.47;4991017;28;20038;-55